Time;durP1;ratioP1;P1;durP2;ratioP2;P2;SDS_P1;SDS_P2;PMS_P1;PMS_P2;Temp;Humidity;BMP_temperature;BMP_pressure;BME280_temperature;BME280_humidity;BME280_pressure;Samples;Min_cycle;Max_cycle;Signal;HPM_P1;HPM_P2
2022/05/02 00:00:54;;;;;;;5.82;2.33;;;15.50;79.40;;;;;;5076836;28;20048;-72
2022/05/02 00:03:19;;;;;;;6.85;2.63;;;15.50;79.30;;;;;;5076765;28;20035;-72
2022/05/02 00:05:45;;;;;;;6.05;2.28;;;15.50;79.20;;;;;;5077053;28;20415;-72
2022/05/02 00:08:11;;;;;;;3.65;2.08;;;15.40;78.60;;;;;;5076941;28;20032;-71
2022/05/02 00:10:37;;;;;;;5.65;2.20;;;15.40;79.10;;;;;;5076619;28;20107;-73
2022/05/02 00:13:06;;;;;;;1.95;1.73;;;15.50;78.90;;;;;;5076869;28;20105;-73
2022/05/02 00:15:32;;;;;;;6.38;2.30;;;15.40;78.70;;;;;;5076826;28;20023;-71
2022/05/02 00:17:59;;;;;;;2.25;1.75;;;15.40;78.90;;;;;;5076749;28;20028;-71
2022/05/02 00:20:30;;;;;;;4.05;2.17;;;15.40;78.70;;;;;;5058342;28;20041;-71
2022/05/02 00:22:58;;;;;;;6.32;2.30;;;15.40;79.10;;;;;;5058682;28;20029;-72
2022/05/02 00:25:25;;;;;;;7.28;2.40;;;15.40;79.20;;;;;;5076605;28;20073;-71
2022/05/02 00:27:50;;;;;;;5.32;2.08;;;15.40;79.10;;;;;;5058589;28;20056;-70
2022/05/02 00:30:16;;;;;;;3.75;1.90;;;15.40;79.10;;;;;;5076497;28;20060;-70
2022/05/02 00:32:43;;;;;;;2.38;2.00;;;15.40;79.30;;;;;;5076697;28;20024;-70
2022/05/02 00:35:10;;;;;;;3.78;2.00;;;15.40;79.00;;;;;;5076144;28;20389;-71
2022/05/02 00:37:39;;;;;;;4.28;2.00;;;15.30;79.40;;;;;;5058414;28;20048;-71
2022/05/02 00:40:08;;;;;;;4.10;2.40;;;15.40;79.10;;;;;;5076225;28;20485;-71
2022/05/02 00:42:34;;;;;;;4.93;1.88;;;15.30;79.30;;;;;;5058280;28;20166;-71
2022/05/02 00:45:00;;;;;;;4.55;2.28;;;15.30;78.90;;;;;;5076234;28;20029;-72
2022/05/02 00:47:27;;;;;;;4.45;2.05;;;15.30;79.00;;;;;;5076168;28;20025;-73
2022/05/02 00:49:53;;;;;;;2.90;2.10;;;15.30;78.90;;;;;;5076104;28;20025;-72
2022/05/02 00:52:19;;;;;;;2.85;1.83;;;15.30;79.30;;;;;;5075686;28;20057;-71
2022/05/02 00:54:46;;;;;;;4.97;2.47;;;15.30;80.30;;;;;;5075991;28;20024;-71
2022/05/02 00:57:14;;;;;;;5.00;1.77;;;15.30;79.10;;;;;;5076039;28;20094;-72
2022/05/02 00:59:40;;;;;;;4.07;2.10;;;15.30;78.90;;;;;;5057842;28;20419;-72
2022/05/02 01:02:08;;;;;;;5.95;1.70;;;15.30;78.60;;;;;;5076161;28;20120;-74
2022/05/02 01:04:34;;;;;;;6.03;1.98;;;15.30;78.80;;;;;;5075820;28;20101;-72
2022/05/02 01:07:11;;;;;;;5.10;2.15;;;15.30;79.10;;;;;;5075875;28;20445;-71
2022/05/02 01:09:42;;;;;;;6.18;1.95;;;15.30;79.50;;;;;;5075746;28;20032;-72
2022/05/02 01:12:19;;;;;;;;;;;15.20;79.70;;;;;;5058096;28;20098;-72
2022/05/02 01:14:49;;;;;;;3.15;1.90;;;15.20;80.00;;;;;;5057764;28;19950;-71
2022/05/02 01:17:15;;;;;;;2.75;2.15;;;15.20;80.00;;;;;;5075936;28;20368;-73
2022/05/02 01:19:41;;;;;;;3.53;2.28;;;15.20;80.10;;;;;;5075517;28;20115;-74
2022/05/02 01:22:08;;;;;;;3.67;1.98;;;15.20;80.10;;;;;;5075558;28;20109;-73
2022/05/02 01:24:42;;;;;;;2.10;1.90;;;15.20;80.00;;;;;;5057566;28;20068;-74
2022/05/02 01:27:10;;;;;;;2.33;1.92;;;15.20;80.30;;;;;;5075515;28;20036;-73
2022/05/02 01:29:37;;;;;;;10.25;2.28;;;15.20;80.60;;;;;;5057407;28;20024;-71
2022/05/02 01:32:06;;;;;;;4.25;1.75;;;15.20;80.70;;;;;;5075351;28;20103;-70
2022/05/02 01:34:40;;;;;;;3.20;2.08;;;15.10;80.10;;;;;;5057271;28;20112;-71
2022/05/02 01:37:07;;;;;;;3.10;2.03;;;15.10;80.50;;;;;;5075318;28;20032;-71
2022/05/02 01:39:33;;;;;;;3.63;2.00;;;15.10;80.10;;;;;;5075147;28;20025;-70
2022/05/02 01:42:10;;;;;;;7.80;2.35;;;15.20;80.70;;;;;;5075454;28;20082;-71
2022/05/02 01:44:37;;;;;;;5.82;1.77;;;15.10;80.40;;;;;;5075219;28;20028;-70
2022/05/02 01:47:03;;;;;;;6.15;1.77;;;15.10;81.30;;;;;;5075095;28;20032;-71
2022/05/02 01:49:29;;;;;;;3.83;1.85;;;15.10;80.10;;;;;;5056931;28;20033;-70
2022/05/02 01:51:57;;;;;;;4.95;2.28;;;15.10;79.80;;;;;;5056770;28;20044;-72
2022/05/02 01:54:24;;;;;;;6.88;2.33;;;15.10;80.50;;;;;;5074980;28;20025;-71
2022/05/02 01:56:50;;;;;;;2.92;1.92;;;15.10;80.80;;;;;;5074922;28;20170;-70
2022/05/02 01:59:16;;;;;;;3.13;2.10;;;15.10;80.20;;;;;;5074799;28;20111;-73
2022/05/02 02:01:42;;;;;;;3.80;1.95;;;15.10;79.90;;;;;;5056509;28;20067;-70
2022/05/02 02:06:53;;;;;;;4.60;2.05;;;15.10;79.60;;;;;;5074462;28;20036;-73
2022/05/02 02:09:19;;;;;;;5.65;2.13;;;15.10;80.00;;;;;;5074921;28;20032;-73
2022/05/02 02:11:45;;;;;;;3.40;2.00;;;15.00;80.20;;;;;;5056631;28;20119;-73
2022/05/02 02:14:11;;;;;;;3.08;2.08;;;15.10;81.70;;;;;;5056620;28;20446;-72
2022/05/02 02:16:37;;;;;;;3.88;2.20;;;15.10;81.90;;;;;;5074569;28;20540;-72
2022/05/02 02:19:04;;;;;;;3.15;2.22;;;15.00;81.30;;;;;;5074348;28;20033;-72
2022/05/02 02:21:31;;;;;;;3.70;2.08;;;15.00;82.10;;;;;;5073822;28;20124;-72
2022/05/02 02:23:57;;;;;;;2.75;2.00;;;15.00;81.70;;;;;;5074333;28;20036;-72
2022/05/02 02:26:23;;;;;;;3.72;2.03;;;15.00;81.10;;;;;;5074376;28;20025;-72
2022/05/02 02:28:49;;;;;;;3.05;2.03;;;14.90;81.10;;;;;;5056210;28;20024;-72
2022/05/02 02:31:15;;;;;;;3.72;2.15;;;14.90;81.00;;;;;;5074160;28;20024;-71
2022/05/02 02:33:41;;;;;;;5.10;2.28;;;14.90;81.30;;;;;;5074147;28;20020;-71
2022/05/02 02:36:07;;;;;;;5.35;2.38;;;14.90;82.00;;;;;;5073876;28;20033;-73
2022/05/02 02:38:33;;;;;;;3.67;2.08;;;14.90;84.00;;;;;;5055740;28;20063;-73
2022/05/02 02:40:58;;;;;;;2.78;1.92;;;14.80;82.40;;;;;;5073589;28;20043;-72
2022/05/02 02:43:25;;;;;;;2.88;2.15;;;14.80;82.10;;;;;;5073976;28;20025;-72
2022/05/02 02:45:50;;;;;;;2.33;2.13;;;14.80;82.20;;;;;;5073964;28;20110;-73
2022/05/02 02:48:16;;;;;;;4.75;2.13;;;14.80;82.40;;;;;;5074144;28;20043;-74
2022/05/02 02:50:42;;;;;;;2.35;2.00;;;14.80;82.90;;;;;;5055875;28;20055;-72
2022/05/02 02:53:08;;;;;;;6.03;2.50;;;14.80;83.00;;;;;;5073615;28;20110;-72
2022/05/02 02:55:34;;;;;;;5.00;2.33;;;14.80;83.20;;;;;;5073698;28;20112;-72
2022/05/02 02:58:00;;;;;;;2.30;2.10;;;14.80;83.20;;;;;;5055793;28;20798;-70
2022/05/02 03:00:26;;;;;;;5.55;2.20;;;14.80;82.80;;;;;;5055247;28;20063;-71
2022/05/02 03:02:53;;;;;;;3.05;2.10;;;14.70;82.90;;;;;;5073580;28;20033;-71
2022/05/02 03:08:04;;;;;;;4.68;2.13;;;14.70;83.70;;;;;;5073290;28;20488;-74
2022/05/02 03:10:30;;;;;;;3.83;2.45;;;14.70;84.60;;;;;;5055386;28;20028;-71
2022/05/02 03:12:56;;;;;;;2.88;2.30;;;14.60;84.00;;;;;;5073398;28;20082;-71
2022/05/02 03:15:22;;;;;;;7.53;2.50;;;14.60;84.50;;;;;;5073422;28;20461;-70
2022/05/02 03:17:48;;;;;;;9.48;2.55;;;14.60;84.30;;;;;;5073449;28;20025;-71
2022/05/02 03:20:14;;;;;;;4.70;2.72;;;14.60;84.40;;;;;;5055204;28;20522;-72
2022/05/02 03:22:40;;;;;;;3.03;2.42;;;14.50;84.40;;;;;;5073279;28;20033;-72
2022/05/02 03:25:06;;;;;;;4.30;2.75;;;14.50;85.10;;;;;;5073252;28;20400;-72
2022/05/02 03:27:32;;;;;;;10.82;2.03;;;14.50;85.40;;;;;;5073562;28;20028;-71
2022/05/02 03:29:58;;;;;;;4.40;2.30;;;14.50;85.40;;;;;;5055227;28;20032;-73
2022/05/02 03:32:24;;;;;;;4.97;2.22;;;14.50;85.30;;;;;;5072862;28;20033;-71
2022/05/02 03:34:50;;;;;;;4.57;2.42;;;14.40;93.60;;;;;;5054590;28;20028;-71
2022/05/02 03:37:16;;;;;;;4.32;2.30;;;14.40;96.50;;;;;;5073412;28;20017;-72
2022/05/02 03:39:41;;;;;;;4.50;2.13;;;14.50;84.80;;;;;;5072988;28;20028;-72
2022/05/02 03:42:07;;;;;;;4.93;2.55;;;14.40;85.30;;;;;;5055004;28;20480;-72
2022/05/02 03:44:33;;;;;;;4.22;2.33;;;14.40;85.10;;;;;;5073366;28;20071;-71
2022/05/02 03:46:59;;;;;;;4.38;2.20;;;14.40;85.20;;;;;;5055007;28;20060;-71
2022/05/02 03:49:25;;;;;;;4.32;2.58;;;14.50;85.60;;;;;;5073277;28;20065;-70
2022/05/02 03:51:51;;;;;;;7.25;2.83;;;14.50;85.30;;;;;;5072934;28;20108;-71
2022/05/02 03:54:17;;;;;;;4.07;2.53;;;14.50;85.00;;;;;;5054715;28;20029;-71
2022/05/02 03:56:43;;;;;;;7.00;2.95;;;14.50;84.70;;;;;;5072979;28;20116;-72
2022/05/02 03:59:09;;;;;;;5.35;2.83;;;14.50;85.70;;;;;;5054818;28;20123;-71
2022/05/02 04:01:40;;;;;;;5.07;3.20;;;14.50;86.00;;;;;;5072924;28;20112;-71
2022/05/02 04:04:06;;;;;;;6.47;3.30;;;14.50;86.30;;;;;;5072960;28;20028;-71
2022/05/02 04:06:32;;;;;;;6.03;3.17;;;14.50;86.40;;;;;;5072885;28;20261;-71
2022/05/02 04:08:58;;;;;;;7.18;4.30;;;14.50;87.30;;;;;;5072798;28;20024;-71
2022/05/02 04:11:26;;;;;;;8.18;3.47;;;14.50;87.50;;;;;;5072793;28;20032;-70
2022/05/02 04:13:52;;;;;;;5.50;3.42;;;14.50;86.80;;;;;;5072763;28;20025;-71
2022/05/02 04:16:18;;;;;;;5.38;3.28;;;14.50;87.00;;;;;;5054691;28;20025;-71
2022/05/02 04:18:45;;;;;;;5.63;3.17;;;14.60;87.90;;;;;;5072731;28;20472;-71
2022/05/02 04:21:12;;;;;;;9.55;3.63;;;14.60;87.10;;;;;;5072691;28;20028;-73
2022/05/02 04:23:37;;;;;;;7.82;3.63;;;14.60;86.30;;;;;;5054692;28;20024;-72
2022/05/02 04:26:03;;;;;;;4.97;3.17;;;14.60;86.70;;;;;;5054591;28;20479;-72
2022/05/02 04:28:30;;;;;;;4.35;2.72;;;14.60;88.20;;;;;;5072664;28;20044;-71
2022/05/02 04:30:56;;;;;;;8.80;2.95;;;14.60;87.80;;;;;;5054516;28;20029;-73
2022/05/02 04:33:23;;;;;;;5.68;2.30;;;14.60;87.60;;;;;;5054577;28;20366;-75
2022/05/02 04:35:49;;;;;;;6.47;2.95;;;14.60;87.90;;;;;;5054503;28;20064;-74
2022/05/02 04:38:15;;;;;;;3.35;2.72;;;14.60;88.10;;;;;;5054213;28;20059;-73
2022/05/02 04:40:41;;;;;;;3.15;2.53;;;14.60;88.00;;;;;;5072413;28;20071;-73
2022/05/02 04:43:07;;;;;;;6.35;2.53;;;14.70;88.90;;;;;;5072456;28;20033;-71
2022/05/02 04:45:32;;;;;;;3.42;2.58;;;14.70;88.70;;;;;;5074910;28;20488;-72
2022/05/02 04:47:58;;;;;;;8.52;2.55;;;14.70;88.60;;;;;;5076221;28;20058;-72
2022/05/02 04:50:24;;;;;;;3.55;2.85;;;14.70;89.20;;;;;;5075823;28;20542;-72
2022/05/02 04:52:50;;;;;;;5.05;2.63;;;14.70;88.80;;;;;;5075696;28;20044;-71
2022/05/02 04:55:16;;;;;;;4.70;2.85;;;14.80;89.10;;;;;;5075741;28;20046;-72
2022/05/02 04:57:42;;;;;;;5.20;3.35;;;14.80;90.00;;;;;;5076272;28;20025;-72
2022/05/02 05:00:08;;;;;;;7.80;2.97;;;14.90;89.60;;;;;;5075593;28;20162;-73
2022/05/02 05:02:34;;;;;;;7.18;3.05;;;15.00;89.00;;;;;;5075965;28;20043;-72
2022/05/02 05:05:00;;;;;;;4.40;2.80;;;15.00;88.90;;;;;;5075852;28;20020;-72
2022/05/02 05:07:26;;;;;;;5.82;2.83;;;15.10;88.40;;;;;;5057906;28;20115;-73
2022/05/02 05:09:51;;;;;;;7.03;2.47;;;15.20;88.60;;;;;;5075796;28;20372;-73
2022/05/02 05:12:40;;;;;;;10.10;2.90;;;15.30;87.70;;;;;;5057694;28;20490;-73
2022/05/02 05:18:34;;;;;;;5.28;2.47;;;15.40;87.60;;;;;;5075688;28;20110;-71
2022/05/02 05:21:03;;;;;;;5.95;3.15;;;15.50;87.80;;;;;;5075550;28;20020;-73
2022/05/02 05:23:28;;;;;;;6.13;2.60;;;15.50;88.90;;;;;;5075561;28;20029;-73
2022/05/02 05:26:00;;;;;;;5.80;2.33;;;15.60;88.10;;;;;;5075511;28;20032;-72
2022/05/02 05:28:38;;;;;;;;;;;15.60;88.60;;;;;;5057890;28;20052;-74
2022/05/02 05:31:29;;;;;;;6.22;2.58;;;15.70;88.80;;;;;;5057354;28;19943;-69
2022/05/02 05:34:04;;;;;;;3.67;2.50;;;15.80;88.30;;;;;;5075426;28;20111;-69
2022/05/02 05:37:01;;;;;;;4.45;2.83;;;15.80;88.70;;;;;;5074936;28;20336;-70
2022/05/02 05:39:44;;;;;;;2.30;2.10;;;15.90;88.30;;;;;;5074898;28;20028;-68
2022/05/02 05:42:36;;;;;;;3.88;2.40;;;15.90;88.40;;;;;;5075249;28;20035;-67
2022/05/02 05:45:14;;;;;;;7.38;3.13;;;16.00;89.40;;;;;;5043884;28;20531;-67
2022/05/02 05:48:01;;;;;;;4.03;2.55;;;16.00;88.30;;;;;;5075133;28;20061;-67
2022/05/02 05:50:31;;;;;;;2.45;1.90;;;16.00;87.50;;;;;;5075132;28;20059;-67
2022/05/02 05:53:24;;;;;;;4.05;2.22;;;16.00;87.90;;;;;;5075003;28;20043;-67
2022/05/02 05:55:53;;;;;;;11.50;2.47;;;15.90;89.00;;;;;;5074222;28;20024;-67
2022/05/02 05:58:31;;;;;;;4.22;2.75;;;16.00;88.60;;;;;;5074866;28;20039;-66
2022/05/02 06:01:13;;;;;;;7.47;2.78;;;15.90;89.20;;;;;;5074796;28;20420;-66
2022/05/02 06:04:03;;;;;;;7.85;2.83;;;16.00;89.80;;;;;;5075059;28;20068;-66
2022/05/02 06:06:29;;;;;;;4.57;2.40;;;16.00;89.20;;;;;;5074780;28;20047;-65
2022/05/02 06:08:59;;;;;;;3.75;2.47;;;16.00;88.40;;;;;;5074714;28;20035;-66
2022/05/02 06:11:26;;;;;;;4.47;2.58;;;16.00;88.40;;;;;;5074635;28;20025;-67
2022/05/02 06:13:54;;;;;;;5.28;2.33;;;16.10;89.60;;;;;;5074523;28;20469;-67
2022/05/02 06:19:26;;;;;;;5.85;2.70;;;16.10;87.60;;;;;;5074187;28;20040;-67
2022/05/02 06:21:54;;;;;;;4.45;2.47;;;16.10;88.60;;;;;;5074252;28;20028;-67
2022/05/02 06:24:25;;;;;;;5.80;2.63;;;16.10;89.60;;;;;;5056421;28;20102;-67
2022/05/02 06:26:52;;;;;;;8.85;2.85;;;16.20;89.90;;;;;;5074658;28;20016;-68
2022/05/02 06:29:20;;;;;;;3.47;2.42;;;16.20;90.30;;;;;;5056057;28;20036;-65
2022/05/02 06:31:49;;;;;;;6.68;3.05;;;16.20;90.20;;;;;;5074199;28;20021;-67
2022/05/02 06:34:23;;;;;;;3.35;2.58;;;16.20;88.20;;;;;;5074468;28;20426;-66
2022/05/02 06:37:18;;;;;;;4.20;2.40;;;16.30;88.20;;;;;;5074176;28;20025;-66
2022/05/02 06:40:02;;;;;;;9.35;2.72;;;16.30;88.70;;;;;;5074009;28;20433;-66
2022/05/02 06:42:39;;;;;;;4.80;2.53;;;16.30;89.30;;;;;;5074021;28;20063;-69
2022/05/02 06:45:23;;;;;;;7.60;2.53;;;16.40;89.70;;;;;;5074053;28;20027;-70
2022/05/02 06:48:09;;;;;;;2.70;2.33;;;16.50;90.40;;;;;;5073929;28;20029;-68
2022/05/02 06:50:38;;;;;;;9.80;2.88;;;16.60;90.00;;;;;;5073889;28;20032;-69
2022/05/02 06:53:19;;;;;;;2.28;2.03;;;16.90;90.00;;;;;;5073610;28;20436;-67
2022/05/02 06:55:50;;;;;;;10.52;2.67;;;17.20;89.40;;;;;;5073458;28;20082;-75
2022/05/02 06:58:38;;;;;;;7.15;2.80;;;17.30;88.90;;;;;;5081991;28;20016;-73
2022/05/02 07:01:10;;;;;;;3.28;2.60;;;17.50;88.40;;;;;;5065556;28;20077;-71
2022/05/02 07:03:41;;;;;;;;;;;17.60;88.90;;;;;;5069727;28;20388;-68
2022/05/02 07:06:33;;;;;;;8.98;3.08;;;18.00;89.60;;;;;;5093571;28;20365;-71
2022/05/02 07:09:04;;;;;;;6.60;2.90;;;18.00;89.10;;;;;;5054673;28;20488;-69
2022/05/02 07:11:40;;;;;;;6.82;4.05;;;18.20;87.80;;;;;;5075397;28;20034;-71
2022/05/02 07:14:36;;;;;;;4.18;2.40;;;18.30;90.30;;;;;;5093694;28;20031;-71
2022/05/02 07:17:15;;;;;;;6.80;4.78;;;18.30;86.00;;;;;;5033600;28;20043;-71
2022/05/02 07:19:58;;;;;;;4.50;3.25;;;18.40;86.60;;;;;;5074924;28;20034;-72
2022/05/02 07:22:37;;;;;;;15.23;7.80;;;18.50;87.50;;;;;;5093754;28;20032;-70
2022/05/02 07:25:12;;;;;;;3.47;2.33;;;18.60;87.50;;;;;;5093525;28;20094;-69
2022/05/02 07:27:52;;;;;;;5.38;2.53;;;18.70;83.00;;;;;;5093482;28;20032;-70
2022/05/02 07:30:21;;;;;;;3.70;1.80;;;18.80;79.10;;;;;;5093434;28;20035;-70
2022/05/02 07:32:49;;;;;;;5.60;3.17;;;19.00;83.40;;;;;;5093224;28;20020;-70
2022/05/02 07:35:15;;;;;;;3.83;2.65;;;19.00;82.90;;;;;;5093232;28;20034;-69
2022/05/02 07:37:43;;;;;;;8.52;5.65;;;19.10;78.90;;;;;;5093274;28;20074;-70
2022/05/02 07:40:12;;;;;;;7.97;4.55;;;19.20;78.90;;;;;;5093282;28;20061;-70
2022/05/02 07:42:38;;;;;;;6.97;2.20;;;19.30;80.60;;;;;;5093310;28;20054;-69
2022/05/02 07:45:10;;;;;;;2.90;1.52;;;19.50;76.90;;;;;;5075044;28;20038;-68
2022/05/02 07:47:37;;;;;;;2.78;1.80;;;19.50;78.20;;;;;;5075117;28;20067;-69
2022/05/02 07:50:05;;;;;;;6.38;2.13;;;19.50;75.50;;;;;;5093068;28;20028;-69
2022/05/02 07:52:35;;;;;;;5.40;1.63;;;19.60;76.10;;;;;;5092796;28;20047;-69
2022/05/02 07:55:03;;;;;;;4.18;2.10;;;19.60;77.40;;;;;;5093115;28;20054;-69
2022/05/02 07:57:33;;;;;;;4.05;1.73;;;19.80;78.10;;;;;;5093179;28;20085;-69
2022/05/02 08:00:00;;;;;;;5.45;1.95;;;20.00;78.40;;;;;;5092951;28;20024;-69
2022/05/02 08:02:26;;;;;;;5.00;1.80;;;20.00;75.00;;;;;;5074749;28;20499;-70
2022/05/02 08:04:53;;;;;;;7.30;2.60;;;20.10;74.30;;;;;;5092841;28;20020;-69
2022/05/02 08:07:24;;;;;;;3.58;2.28;;;20.10;75.30;;;;;;5074000;28;20024;-69
2022/05/02 08:10:28;;;;;;;4.22;2.35;;;20.10;77.60;;;;;;5074772;28;20042;-69
2022/05/02 08:13:27;;;;;;;4.97;2.60;;;20.10;77.10;;;;;;5092916;28;20054;-69
2022/05/02 08:16:05;;;;;;;5.85;2.35;;;20.30;77.80;;;;;;5093216;28;20034;-69
2022/05/02 08:19:08;;;;;;;3.63;2.25;;;20.40;78.50;;;;;;5092850;28;20039;-69
2022/05/02 08:27:15;;;;;;;4.25;1.70;;;20.30;74.70;;;;;;5078608;28;20035;-68
2022/05/02 08:28:48;;;;;;;6.00;1.70;;;20.40;74.00;;;;;;5096842;28;20127;-67
2022/05/02 08:31:31;;;;;;;4.28;2.25;;;20.40;73.40;;;;;;5096636;28;20118;-67
2022/05/02 08:34:29;;;;;;;1.95;1.67;;;20.40;75.60;;;;;;5096629;28;20480;-70
2022/05/02 08:37:32;;;;;;;4.25;2.03;;;20.40;74.70;;;;;;5096412;28;20021;-70
2022/05/02 08:40:12;;;;;;;3.33;1.65;;;20.40;72.80;;;;;;5096060;28;20043;-69
2022/05/02 08:43:01;;;;;;;2.78;1.60;;;20.30;73.80;;;;;;5095934;28;20032;-69
2022/05/02 08:45:38;;;;;;;5.22;1.88;;;20.40;73.50;;;;;;5096289;28;20036;-69
2022/05/02 08:49:32;;;;;;;2.08;1.85;;;20.80;74.50;;;;;;5096391;28;20039;-72
2022/05/02 08:51:46;;;;;;;3.63;1.95;;;21.00;72.00;;;;;;5064756;28;20032;-71
2022/05/02 08:54:33;;;;;;;4.60;2.33;;;21.30;73.90;;;;;;5096260;28;20437;-71
2022/05/02 08:57:21;;;;;;;5.00;1.52;;;21.40;74.00;;;;;;5077454;28;20028;-73
2022/05/02 09:00:04;;;;;;;3.20;1.83;;;21.40;71.20;;;;;;5096401;28;20144;-72
2022/05/02 09:02:55;;;;;;;3.60;1.77;;;21.40;72.00;;;;;;5076926;28;20036;-69
2022/05/02 09:05:40;;;;;;;3.28;1.90;;;21.30;70.60;;;;;;5095986;28;20057;-69
2022/05/02 09:08:23;;;;;;;5.45;2.33;;;21.40;72.20;;;;;;5096094;28;20035;-70
2022/05/02 09:11:10;;;;;;;8.07;2.55;;;21.50;72.50;;;;;;5095946;28;20036;-69
2022/05/02 09:14:04;;;;;;;4.45;1.75;;;22.00;72.10;;;;;;5095866;28;20028;-69
2022/05/02 09:16:48;;;;;;;6.10;2.40;;;22.40;69.10;;;;;;5095805;28;20704;-70
2022/05/02 09:19:22;;;;;;;5.55;1.88;;;22.50;69.30;;;;;;5095399;28;20398;-69
2022/05/02 09:21:50;;;;;;;3.53;2.13;;;22.70;70.20;;;;;;5096068;28;20028;-69
2022/05/02 09:24:51;;;;;;;5.80;2.53;;;22.60;72.70;;;;;;5095413;28;20500;-73
2022/05/02 09:27:41;;;;;;;12.10;2.97;;;22.90;70.20;;;;;;5076301;28;20028;-72
2022/05/02 09:30:18;;;;;;;3.92;2.28;;;22.90;69.90;;;;;;5077216;28;20464;-72
2022/05/02 09:32:48;;;;;;;5.03;2.30;;;23.00;70.60;;;;;;5094666;28;20025;-73
2022/05/02 09:35:38;;;;;;;6.47;2.40;;;23.30;69.00;;;;;;5077533;28;20372;-73
2022/05/02 09:38:23;;;;;;;4.03;1.88;;;23.40;69.50;;;;;;5094442;28;20040;-73
2022/05/02 09:41:27;;;;;;;3.35;1.88;;;23.50;68.30;;;;;;5095396;28;20028;-71
2022/05/02 09:49:54;;;;;;;2.13;1.83;;;24.30;66.70;;;;;;5095273;28;20093;-72
2022/05/02 09:52:48;;;;;;;4.93;1.83;;;24.30;66.70;;;;;;5076787;28;20052;-72
2022/05/02 09:58:35;;;;;;;5.03;2.42;;;24.50;62.50;;;;;;5094853;28;20031;-72
2022/05/02 10:01:20;;;;;;;6.75;2.17;;;24.60;62.50;;;;;;5094937;28;20030;-71
2022/05/02 10:03:58;;;;;;;2.88;1.40;;;24.70;64.40;;;;;;5095078;28;20024;-73
2022/05/02 10:06:46;;;;;;;4.25;2.00;;;24.70;61.50;;;;;;5094662;28;20479;-73
2022/05/02 10:09:20;;;;;;;5.63;1.75;;;24.70;62.30;;;;;;5094619;28;20024;-75
2022/05/02 10:12:07;;;;;;;5.95;1.98;;;24.70;64.40;;;;;;5076547;28;20028;-74
2022/05/02 10:14:50;;;;;;;2.95;1.95;;;24.80;63.70;;;;;;5076459;28;20415;-72
2022/05/02 10:17:45;;;;;;;6.30;2.00;;;24.90;62.00;;;;;;5094462;28;20024;-73
2022/05/02 10:20:18;;;;;;;5.10;2.20;;;25.10;64.60;;;;;;5050749;28;20047;-72
2022/05/02 10:23:17;;;;;;;5.88;2.20;;;25.30;62.30;;;;;;5094356;28;20032;-73
2022/05/02 10:26:01;;;;;;;5.45;2.05;;;25.50;61.50;;;;;;5076376;28;20020;-70
2022/05/02 10:28:53;;;;;;;5.75;2.00;;;25.60;59.10;;;;;;5094510;28;20028;-72
2022/05/02 10:31:25;;;;;;;16.05;2.88;;;26.20;59.90;;;;;;5076159;28;20534;-71
2022/05/02 10:33:53;;;;;;;6.47;2.08;;;27.10;56.30;;;;;;5094257;28;20027;-73
2022/05/02 10:36:28;;;;;;;4.35;2.13;;;27.60;56.80;;;;;;5094369;28;20059;-71
2022/05/02 10:39:01;;;;;;;3.80;1.83;;;28.20;56.80;;;;;;5094296;28;20067;-70
2022/05/02 10:41:30;;;;;;;6.82;2.05;;;28.70;54.10;;;;;;5094117;28;20122;-71
2022/05/02 10:44:05;;;;;;;4.47;1.55;;;28.80;52.50;;;;;;5093768;28;20047;-71
2022/05/02 10:46:32;;;;;;;1.83;1.67;;;29.20;53.10;;;;;;5093965;28;20499;-71
2022/05/02 10:49:21;;;;;;;3.97;1.85;;;29.40;52.70;;;;;;5094367;28;20031;-70
2022/05/02 10:52:05;;;;;;;3.60;1.80;;;29.40;53.30;;;;;;5093595;28;20020;-67
2022/05/02 10:54:30;;;;;;;2.33;1.98;;;29.40;52.90;;;;;;5093973;28;20039;-68
2022/05/02 10:57:03;;;;;;;3.05;1.77;;;29.40;52.60;;;;;;5094149;28;20020;-70
2022/05/02 10:59:34;;;;;;;3.17;1.90;;;29.50;53.00;;;;;;5057642;28;20039;-72
2022/05/02 11:02:26;;;;;;;6.50;2.00;;;28.70;55.30;;;;;;5092272;28;20428;-72
2022/05/02 11:05:04;;;;;;;5.78;1.83;;;28.20;54.60;;;;;;5092571;28;20038;-77
2022/05/02 11:07:36;;;;;;;10.27;2.20;;;27.90;54.00;;;;;;5093701;28;20514;-71
2022/05/02 11:10:11;;;;;;;4.82;2.03;;;27.80;56.10;;;;;;5075231;28;20028;-72
2022/05/02 11:12:39;;;;;;;5.50;2.03;;;27.90;55.40;;;;;;5093540;28;20107;-73
2022/05/02 11:15:07;;;;;;;5.57;2.30;;;28.10;56.60;;;;;;5093480;28;20028;-73
2022/05/02 11:17:54;;;;;;;4.05;1.80;;;28.20;57.00;;;;;;5075343;28;20020;-75
2022/05/02 11:20:43;;;;;;;3.75;2.55;;;28.40;55.70;;;;;;5075326;28;20115;-71
2022/05/02 11:23:24;;;;;;;2.75;1.80;;;27.80;55.00;;;;;;5093396;28;20024;-71
2022/05/02 11:26:32;;;;;;;1.80;1.70;;;25.80;59.00;;;;;;5098251;28;20058;-71
2022/05/02 11:29:23;;;;;;;4.50;1.90;;;25.60;59.80;;;;;;5113863;28;20032;-72
2022/05/02 11:31:58;;;;;;;4.95;2.03;;;24.70;60.10;;;;;;5084868;28;20044;-69
2022/05/02 11:34:55;;;;;;;2.53;1.70;;;24.30;60.80;;;;;;5095306;28;20019;-70
2022/05/02 11:37:44;;;;;;;4.30;2.10;;;24.00;62.30;;;;;;5113855;28;20166;-70
2022/05/02 11:40:11;;;;;;;2.83;1.70;;;23.90;61.90;;;;;;5112368;28;20040;-72
2022/05/02 11:42:48;;;;;;;6.00;2.13;;;24.00;61.70;;;;;;5093844;28;20484;-70
2022/05/02 11:45:17;;;;;;;6.30;1.95;;;24.10;62.50;;;;;;5112123;28;20452;-72
2022/05/02 11:48:01;;;;;;;4.45;2.00;;;24.70;61.90;;;;;;5112732;28;20024;-71
2022/05/02 11:50:28;;;;;;;11.35;1.88;;;26.00;61.20;;;;;;5112547;28;20042;-70
2022/05/02 11:52:57;;;;;;;2.55;1.75;;;26.90;59.10;;;;;;5113726;28;20380;-70
2022/05/02 11:55:33;;;;;;;3.15;1.70;;;27.40;56.70;;;;;;5093947;28;20035;-71
2022/05/02 11:58:25;;;;;;;4.43;1.73;;;27.40;55.30;;;;;;5113367;28;20072;-70
2022/05/02 12:00:57;;;;;;;6.35;1.70;;;27.20;54.00;;;;;;5086507;28;20043;-71
2022/05/02 12:03:25;;;;;;;4.28;1.60;;;27.30;56.20;;;;;;5113344;28;20020;-70
2022/05/02 12:05:55;;;;;;;4.47;1.70;;;27.60;54.50;;;;;;5094911;28;20024;-70
2022/05/02 12:08:37;;;;;;;6.72;2.17;;;27.50;54.60;;;;;;5095002;28;20039;-70
2022/05/02 12:11:08;;;;;;;6.40;1.88;;;26.80;52.10;;;;;;5113313;28;20035;-73
2022/05/02 12:13:36;;;;;;;8.65;1.80;;;26.40;54.70;;;;;;5113142;28;20047;-72
2022/05/02 12:16:07;;;;;;;4.05;1.75;;;25.80;55.00;;;;;;5113460;28;20116;-72
2022/05/02 12:18:46;;;;;;;5.38;1.83;;;25.30;55.70;;;;;;5113280;28;20020;-71
2022/05/02 12:21:40;;;;;;;2.75;1.73;;;25.30;56.40;;;;;;5113133;28;20035;-69
2022/05/02 12:24:09;;;;;;;3.40;1.90;;;25.90;55.90;;;;;;5112970;28;20736;-70
2022/05/02 12:26:46;;;;;;;2.92;1.65;;;26.20;56.90;;;;;;5112797;28;20047;-68
2022/05/02 12:29:16;;;;;;;4.35;1.50;;;26.60;55.60;;;;;;5113168;28;20063;-68
2022/05/02 12:31:43;;;;;;;5.53;1.90;;;26.70;54.60;;;;;;5112281;28;20531;-68
2022/05/02 12:34:12;;;;;;;5.20;1.67;;;26.80;54.70;;;;;;5095410;28;20034;-69
2022/05/02 12:36:43;;;;;;;4.70;1.48;;;26.60;53.00;;;;;;5092691;28;20058;-70
2022/05/02 12:39:45;;;;;;;1.77;1.50;;;26.40;52.50;;;;;;5092514;28;20032;-71
2022/05/02 12:42:19;;;;;;;1.58;1.35;;;26.00;55.40;;;;;;5092634;28;20028;-69
2022/05/02 12:44:52;;;;;;;5.13;1.73;;;25.70;53.60;;;;;;5092479;28;20016;-64
2022/05/02 12:47:25;;;;;;;7.32;1.58;;;25.50;51.90;;;;;;5092684;28;20032;-66
2022/05/02 12:50:06;;;;;;;4.28;1.67;;;25.20;51.70;;;;;;5092663;28;20569;-65
2022/05/02 12:52:33;;;;;;;2.22;1.67;;;24.90;53.60;;;;;;5092714;28;20024;-64
2022/05/02 12:55:00;;;;;;;4.20;1.95;;;24.70;56.20;;;;;;5074421;28;20043;-64
2022/05/02 13:00:51;;;;;;;6.03;1.60;;;24.40;55.20;;;;;;5029903;28;20496;-67
2022/05/02 13:03:18;;;;;;;2.17;1.60;;;24.20;58.00;;;;;;5082906;28;20039;-65
2022/05/02 13:05:59;;;;;;;2.50;1.17;;;24.10;56.20;;;;;;5093698;28;20059;-66
2022/05/02 13:08:42;;;;;;;2.00;1.33;;;24.00;54.60;;;;;;5095838;28;20472;-65
2022/05/02 13:11:20;;;;;;;3.50;1.60;;;23.90;53.40;;;;;;5077857;28;20058;-66
2022/05/02 13:13:56;;;;;;;8.73;1.95;;;23.90;56.60;;;;;;5093919;28;20024;-65
2022/05/02 13:16:29;;;;;;;3.80;1.88;;;23.90;56.90;;;;;;5095814;28;20055;-66
2022/05/02 13:18:58;;;;;;;4.22;1.35;;;24.00;54.10;;;;;;5095864;28;20107;-64
2022/05/02 13:21:25;;;;;;;11.23;2.33;;;24.20;54.40;;;;;;5094512;28;20130;-66
2022/05/02 13:24:14;;;;;;;3.30;1.58;;;24.50;55.00;;;;;;5094373;28;20064;-64
2022/05/02 13:27:02;;;;;;;1.45;1.35;;;24.80;53.40;;;;;;5095786;28;20146;-64
2022/05/02 13:29:39;;;;;;;3.88;1.70;;;25.10;54.70;;;;;;5095640;28;20024;-67
2022/05/02 13:32:16;;;;;;;4.40;1.77;;;25.20;53.20;;;;;;5095604;28;20590;-65
2022/05/02 13:34:51;;;;;;;2.90;1.40;;;25.40;54.00;;;;;;5095617;28;20480;-66
2022/05/02 13:37:41;;;;;;;2.63;1.60;;;25.50;53.20;;;;;;5095553;28;20512;-66
2022/05/02 13:40:13;;;;;;;1.77;1.27;;;25.60;53.50;;;;;;5094981;28;20032;-66
2022/05/02 13:42:51;;;;;;;2.47;1.20;;;25.70;51.90;;;;;;5094172;28;20024;-66
2022/05/02 13:45:58;;;;;;;2.28;1.42;;;25.70;51.40;;;;;;5095481;28;20483;-66
2022/05/02 13:48:33;;;;;;;5.32;1.80;;;25.60;50.50;;;;;;5094074;28;20035;-66
2022/05/02 13:51:09;;;;;;;5.10;1.58;;;25.40;50.50;;;;;;5094606;28;20445;-66